Time;durP1;ratioP1;P1;durP2;ratioP2;P2;SDS_P1;SDS_P2;PMS_P1;PMS_P2;Temp;Humidity;BMP_temperature;BMP_pressure;BME280_temperature;BME280_humidity;BME280_pressure;Samples;Min_cycle;Max_cycle;Signal;HPM_P1;HPM_P2
2023/03/26 00:01:35;;;;;;;2.28;0.40;;;7.80;99.90;;;;;;5027147;28;20482;-77
2023/03/26 00:04:02;;;;;;;2.20;0.80;;;7.70;99.90;;;;;;5027402;28;20026;-76
2023/03/26 00:06:32;;;;;;;1.40;0.55;;;7.70;99.90;;;;;;5027307;28;20481;-77
2023/03/26 00:08:58;;;;;;;1.33;0.40;;;7.70;99.90;;;;;;5027225;28;20526;-76
2023/03/26 00:11:26;;;;;;;;;;;7.70;99.90;;;;;;5030730;28;20064;-76
2023/03/26 00:13:55;;;;;;;2.08;0.52;;;7.70;99.90;;;;;;5031277;28;20258;-77
2023/03/26 00:16:25;;;;;;;1.02;0.50;;;7.70;99.90;;;;;;5031278;28;20057;-75
2023/03/26 00:18:52;;;;;;;3.58;0.30;;;7.70;99.90;;;;;;5031063;28;20033;-78
2023/03/26 00:21:20;;;;;;;3.33;0.95;;;7.70;99.90;;;;;;5031102;28;20033;-77
2023/03/26 00:23:47;;;;;;;2.15;0.32;;;7.70;99.90;;;;;;5032571;28;20174;-77
2023/03/26 00:26:15;;;;;;;1.50;0.40;;;7.70;99.90;;;;;;5032202;28;20497;-76
2023/03/26 00:28:41;;;;;;;0.98;0.30;;;7.60;99.90;;;;;;5031009;28;20031;-76
2023/03/26 00:31:11;;;;;;;2.90;0.35;;;7.60;99.90;;;;;;5031194;28;20033;-76
2023/03/26 00:33:39;;;;;;;4.82;0.40;;;7.60;99.90;;;;;;5032238;28;20057;-76
2023/03/26 00:36:13;;;;;;;2.13;0.40;;;7.50;99.90;;;;;;5030910;28;20034;-76
2023/03/26 00:38:39;;;;;;;0.90;0.43;;;7.50;99.90;;;;;;5030887;28;20460;-77
2023/03/26 00:41:16;;;;;;;2.65;0.60;;;7.50;99.90;;;;;;5031014;28;20030;-77
2023/03/26 00:43:43;;;;;;;;;;;7.40;99.90;;;;;;5032731;28;20533;-77
2023/03/26 00:46:08;;;;;;;0.70;0.30;;;7.40;99.90;;;;;;5030723;28;19999;-77
2023/03/26 00:48:37;;;;;;;;;;;7.30;99.90;;;;;;5032293;28;21084;-76
2023/03/26 00:51:04;;;;;;;0.70;0.30;;;7.40;99.90;;;;;;5030763;28;19909;-76
2023/03/26 00:53:30;;;;;;;1.42;0.40;;;7.30;99.90;;;;;;5031869;28;20094;-77
2023/03/26 00:55:59;;;;;;;1.90;0.32;;;7.30;99.90;;;;;;5032285;28;20118;-77
2023/03/26 00:58:26;;;;;;;0.93;0.30;;;7.40;99.90;;;;;;5031743;28;20029;-76
2023/03/26 01:00:58;;;;;;;1.15;0.28;;;7.60;99.90;;;;;;5032230;28;20025;-76
2023/03/26 01:03:28;;;;;;;0.70;0.30;;;7.60;99.90;;;;;;5032137;28;20520;-77
2023/03/26 01:06:06;;;;;;;1.75;0.10;;;7.70;99.90;;;;;;5030810;28;20032;-75
2023/03/26 01:08:43;;;;;;;1.38;0.30;;;7.80;99.90;;;;;;5031641;28;20190;-76
2023/03/26 01:11:17;;;;;;;1.05;0.20;;;7.80;99.90;;;;;;5030394;28;20025;-77
2023/03/26 01:13:52;;;;;;;0.70;0.30;;;7.90;99.90;;;;;;5031488;28;20034;-76
2023/03/26 01:16:48;;;;;;;1.03;0.27;;;7.80;99.90;;;;;;5031463;28;20021;-76
2023/03/26 01:19:37;;;;;;;1.45;0.30;;;7.80;99.90;;;;;;5045841;28;20041;-76
2023/03/26 01:22:05;;;;;;;0.57;0.20;;;7.70;99.90;;;;;;5029335;28;20029;-76
2023/03/26 01:24:31;;;;;;;0.75;0.20;;;7.70;99.90;;;;;;5031116;28;20029;-76
2023/03/26 01:27:13;;;;;;;;;;;7.60;99.90;;;;;;5030347;28;20763;-75
2023/03/26 01:29:43;;;;;;;2.80;0.30;;;7.60;99.90;;;;;;5030229;28;20171;-75
2023/03/26 01:32:27;;;;;;;0.80;0.40;;;7.60;99.90;;;;;;5029858;28;20096;-76
2023/03/26 01:35:18;;;;;;;0.80;0.30;;;7.60;99.90;;;;;;5029919;28;20035;-75
2023/03/26 01:37:45;;;;;;;0.40;0.13;;;7.70;99.90;;;;;;5029585;28;20042;-76
2023/03/26 01:40:24;;;;;;;0.60;0.30;;;7.70;99.90;;;;;;5029612;28;20065;-75
2023/03/26 01:43:16;;;;;;;1.63;0.30;;;7.70;99.90;;;;;;5029491;28;20033;-76
2023/03/26 01:45:45;;;;;;;0.65;0.30;;;7.70;99.90;;;;;;5030915;28;20022;-75
2023/03/26 01:48:11;;;;;;;1.55;0.25;;;7.60;99.90;;;;;;5030454;28;20044;-75
2023/03/26 01:50:37;;;;;;;3.42;0.30;;;7.60;99.90;;;;;;5029706;28;20030;-75
2023/03/26 01:53:03;;;;;;;;;;;7.50;99.90;;;;;;5046470;28;20564;-74
2023/03/26 01:55:42;;;;;;;0.80;0.30;;;7.40;99.90;;;;;;5030567;28;19917;-76
2023/03/26 01:58:19;;;;;;;1.02;0.20;;;7.40;99.90;;;;;;5029312;28;20132;-75
2023/03/26 02:01:11;;;;;;;0.82;0.30;;;7.30;99.90;;;;;;5030706;28;20021;-76
2023/03/26 02:03:52;;;;;;;1.48;0.30;;;7.20;99.90;;;;;;5030412;28;20053;-75
2023/03/26 02:06:29;;;;;;;0.73;0.40;;;7.20;99.90;;;;;;5029182;28;20036;-75
2023/03/26 02:09:06;;;;;;;1.58;0.30;;;7.10;99.90;;;;;;5030666;28;20021;-75
2023/03/26 02:11:34;;;;;;;1.92;0.40;;;7.10;99.90;;;;;;5028956;28;20118;-76
2023/03/26 02:14:00;;;;;;;0.50;0.20;;;7.00;99.90;;;;;;5029373;28;20027;-75
2023/03/26 02:16:25;;;;;;;;;;;7.00;99.90;;;;;;5030387;28;20030;-75
2023/03/26 02:18:54;;;;;;;1.33;0.50;;;7.00;99.90;;;;;;5030193;28;20259;-74
2023/03/26 02:21:24;;;;;;;2.20;0.45;;;6.90;99.90;;;;;;5045265;28;20021;-76
2023/03/26 02:24:01;;;;;;;1.63;0.35;;;6.90;99.90;;;;;;5030515;28;20112;-75
2023/03/26 02:26:32;;;;;;;2.08;0.30;;;6.80;99.90;;;;;;5030329;28;20482;-76
2023/03/26 02:29:00;;;;;;;0.93;0.30;;;6.80;99.90;;;;;;5030190;28;20033;-75
2023/03/26 02:31:26;;;;;;;2.63;0.40;;;6.70;99.90;;;;;;5029741;28;20040;-75
2023/03/26 02:33:52;;;;;;;;;;;6.70;99.90;;;;;;5028875;28;20037;-75
2023/03/26 02:36:23;;;;;;;1.10;0.40;;;6.70;99.90;;;;;;5028706;28;19920;-76
2023/03/26 02:38:49;;;;;;;3.88;0.40;;;6.70;99.90;;;;;;5029743;28;20040;-76
2023/03/26 02:41:17;;;;;;;3.92;0.35;;;6.80;99.90;;;;;;5029591;28;20048;-77
2023/03/26 02:43:42;;;;;;;;;;;6.80;99.90;;;;;;5030301;28;20025;-73
2023/03/26 02:46:08;;;;;;;3.08;0.52;;;6.80;99.90;;;;;;5028330;28;20376;-76
2023/03/26 02:48:34;;;;;;;5.95;1.35;;;6.70;99.90;;;;;;5029651;28;20064;-75
2023/03/26 02:51:03;;;;;;;;;;;6.80;99.90;;;;;;5045347;28;20029;-74
2023/03/26 02:53:29;;;;;;;4.43;1.60;;;6.80;99.90;;;;;;5028172;28;19913;-75
2023/03/26 02:55:55;;;;;;;;;;;6.80;99.90;;;;;;5045323;28;20490;-75
2023/03/26 02:58:24;;;;;;;5.15;1.35;;;6.70;99.90;;;;;;5029375;28;19963;-75
2023/03/26 03:00:53;;;;;;;2.67;0.80;;;6.70;99.90;;;;;;5028250;28;20026;-75
2023/03/26 03:03:24;;;;;;;3.75;0.88;;;6.60;99.90;;;;;;5044564;28;20037;-75
2023/03/26 03:05:51;;;;;;;5.07;0.90;;;6.50;99.90;;;;;;5029637;28;20033;-75
2023/03/26 03:08:22;;;;;;;2.60;1.00;;;6.50;99.90;;;;;;5029176;28;20025;-74
2023/03/26 03:10:58;;;;;;;2.92;1.17;;;6.40;99.90;;;;;;5029161;28;20030;-75
2023/03/26 03:13:24;;;;;;;;;;;6.40;99.90;;;;;;5029598;28;20026;-75
2023/03/26 03:15:49;;;;;;;3.33;0.70;;;6.30;99.90;;;;;;5029305;28;19983;-75
2023/03/26 03:18:15;;;;;;;;;;;6.30;99.90;;;;;;5028072;28;20099;-74
2023/03/26 03:20:41;;;;;;;2.50;0.45;;;6.30;99.90;;;;;;5027510;28;19911;-74
2023/03/26 03:23:06;;;;;;;;;;;6.20;99.90;;;;;;5029628;28;20032;-75
2023/03/26 03:25:32;;;;;;;2.58;0.57;;;6.20;99.90;;;;;;5027314;28;19905;-75
2023/03/26 03:27:58;;;;;;;;;;;6.20;99.90;;;;;;5029535;28;20033;-75
2023/03/26 03:30:24;;;;;;;1.63;0.50;;;6.20;99.90;;;;;;5029059;28;19951;-75
2023/03/26 03:32:49;;;;;;;;;;;6.20;99.90;;;;;;5028051;28;20602;-74
2023/03/26 03:35:15;;;;;;;1.48;0.40;;;6.20;99.90;;;;;;5027526;28;19990;-75
2023/03/26 03:37:41;;;;;;;;;;;6.20;99.90;;;;;;5028192;28;20156;-75
2023/03/26 03:40:09;;;;;;;1.27;0.35;;;6.30;99.90;;;;;;5028739;28;19916;-75
2023/03/26 03:42:35;;;;;;;0.77;0.30;;;6.40;99.90;;;;;;5028860;28;20374;-75
2023/03/26 03:45:02;;;;;;;1.73;0.28;;;6.50;99.90;;;;;;5028715;28;20030;-76
2023/03/26 03:47:28;;;;;;;2.63;0.40;;;6.50;99.90;;;;;;5028731;28;20026;-76
2023/03/26 03:49:55;;;;;;;;;;;6.50;99.90;;;;;;5028107;28;20033;-74
2023/03/26 03:52:21;;;;;;;2.97;0.60;;;6.50;99.90;;;;;;5028797;28;20366;-75
2023/03/26 03:54:47;;;;;;;4.97;1.10;;;6.60;99.90;;;;;;5028832;28;20033;-76
2023/03/26 03:57:14;;;;;;;2.22;0.50;;;6.50;99.90;;;;;;5028789;28;20499;-76
2023/03/26 03:59:40;;;;;;;0.55;0.35;;;6.50;99.90;;;;;;5028665;28;20609;-75
2023/03/26 04:02:06;;;;;;;;;;;6.50;99.90;;;;;;5027734;28;20033;-75
2023/03/26 04:04:31;;;;;;;1.90;0.50;;;6.50;99.90;;;;;;5043809;28;19909;-75
2023/03/26 04:06:57;;;;;;;3.13;0.40;;;6.40;99.90;;;;;;5028841;28;20037;-75
2023/03/26 04:09:22;;;;;;;;;;;6.30;99.90;;;;;;5029076;28;20029;-75
2023/03/26 04:11:49;;;;;;;5.63;2.65;;;6.20;99.90;;;;;;5028745;28;19955;-75
2023/03/26 04:14:15;;;;;;;5.75;2.05;;;6.10;99.90;;;;;;5044174;28;20030;-76
2023/03/26 04:16:41;;;;;;;;;;;6.00;99.90;;;;;;5028955;28;20032;-75
2023/03/26 04:19:07;;;;;;;9.05;2.95;;;5.80;99.90;;;;;;5027375;28;19917;-76
2023/03/26 04:21:36;;;;;;;;;;;5.80;99.90;;;;;;5028765;28;20025;-76
2023/03/26 04:24:04;;;;;;;4.45;1.42;;;5.70;99.90;;;;;;5028382;28;19909;-77
2023/03/26 04:26:30;;;;;;;1.63;0.52;;;5.70;99.90;;;;;;5028366;28;20108;-76
2023/03/26 04:28:59;;;;;;;;;;;5.60;99.90;;;;;;5028376;28;20037;-75
2023/03/26 04:31:27;;;;;;;2.97;0.50;;;5.60;99.90;;;;;;5043750;28;20472;-77
2023/03/26 04:33:58;;;;;;;2.00;0.38;;;5.60;99.90;;;;;;5028030;28;20063;-77
2023/03/26 04:36:30;;;;;;;3.72;0.30;;;5.50;99.90;;;;;;5028312;28;20108;-75
2023/03/26 04:39:01;;;;;;;2.92;0.75;;;5.60;99.90;;;;;;5028255;28;20029;-74
2023/03/26 04:41:27;;;;;;;2.50;0.70;;;5.60;99.90;;;;;;5028109;28;20029;-77
2023/03/26 04:43:54;;;;;;;3.05;0.90;;;5.70;99.90;;;;;;5028201;28;20057;-74
2023/03/26 04:46:20;;;;;;;1.67;0.52;;;5.80;99.90;;;;;;5026670;28;20405;-77
2023/03/26 04:48:55;;;;;;;1.95;0.60;;;5.80;99.90;;;;;;5028148;28;20025;-76
2023/03/26 04:51:25;;;;;;;6.70;0.68;;;5.80;99.90;;;;;;5043448;28;20029;-77
2023/03/26 04:53:58;;;;;;;9.88;3.80;;;5.80;99.90;;;;;;5026765;28;20418;-76
2023/03/26 04:56:45;;;;;;;7.07;2.30;;;5.70;99.90;;;;;;5028018;28;20030;-75
2023/03/26 04:59:12;;;;;;;;;;;5.70;99.90;;;;;;5030682;28;20578;-77
2023/03/26 05:01:39;;;;;;;5.70;1.50;;;5.70;99.90;;;;;;5031473;28;19932;-75
2023/03/26 05:04:05;;;;;;;1.45;0.50;;;5.70;99.90;;;;;;5031354;28;20060;-76
2023/03/26 05:06:33;;;;;;;;;;;5.80;99.90;;;;;;5030632;28;20049;-76
2023/03/26 05:09:00;;;;;;;1.63;0.52;;;5.90;99.90;;;;;;5031406;28;20107;-75
2023/03/26 05:11:26;;;;;;;2.80;1.02;;;6.10;99.90;;;;;;5031342;28;20498;-77
2023/03/26 05:13:52;;;;;;;2.70;0.70;;;6.10;99.90;;;;;;5031287;28;20505;-76
2023/03/26 05:16:18;;;;;;;;;;;6.30;99.90;;;;;;5047250;28;20030;-77
2023/03/26 05:18:43;;;;;;;4.40;0.70;;;6.40;99.90;;;;;;5031220;28;19909;-75
2023/03/26 05:21:10;;;;;;;;;;;6.50;99.90;;;;;;5031660;28;20041;-76
2023/03/26 05:23:35;;;;;;;2.65;0.52;;;6.50;99.90;;;;;;5031172;28;19909;-76
2023/03/26 05:26:01;;;;;;;;;;;6.60;99.90;;;;;;5031255;28;20048;-75
2023/03/26 05:28:27;;;;;;;2.22;0.57;;;6.70;99.90;;;;;;5046625;28;19936;-75
2023/03/26 05:30:53;;;;;;;;;;;6.80;99.90;;;;;;5031560;28;20029;-75
2023/03/26 05:33:20;;;;;;;2.28;0.50;;;6.90;99.90;;;;;;5030761;28;19928;-76
2023/03/26 05:35:48;;;;;;;3.05;0.55;;;7.10;99.90;;;;;;5031075;28;20457;-76
2023/03/26 05:38:14;;;;;;;2.67;0.40;;;7.30;99.90;;;;;;5030636;28;20045;-76
2023/03/26 05:40:40;;;;;;;2.35;0.40;;;7.60;99.90;;;;;;5030753;28;20033;-76
2023/03/26 05:43:05;;;;;;;;;;;8.10;99.90;;;;;;5030122;28;20029;-76
2023/03/26 05:45:31;;;;;;;1.20;0.40;;;8.80;99.90;;;;;;5030986;28;19905;-75
2023/03/26 05:47:57;;;;;;;;;;;9.50;99.90;;;;;;5029871;28;20090;-76
2023/03/26 05:50:22;;;;;;;1.45;0.50;;;10.20;99.90;;;;;;5030858;28;19927;-77
2023/03/26 05:52:48;;;;;;;;;;;10.80;99.90;;;;;;5030874;28;20227;-75
2023/03/26 05:55:14;;;;;;;1.90;0.35;;;11.20;99.90;;;;;;5030505;28;19908;-77
2023/03/26 05:57:41;;;;;;;0.95;0.40;;;11.70;99.80;;;;;;5029335;28;20057;-77
2023/03/26 06:00:09;;;;;;;3.22;0.70;;;12.00;97.30;;;;;;5030391;28;20051;-76
2023/03/26 06:02:35;;;;;;;3.03;0.40;;;12.30;94.80;;;;;;5030328;28;20022;-77
2023/03/26 06:05:01;;;;;;;;;;;12.60;92.50;;;;;;5045945;28;20160;-76
2023/03/26 06:07:27;;;;;;;2.40;0.95;;;12.80;89.30;;;;;;5030282;28;20007;-76
2023/03/26 06:09:53;;;;;;;3.90;0.50;;;12.90;89.70;;;;;;5029802;28;20554;-76
2023/03/26 06:12:19;;;;;;;2.58;0.40;;;13.20;87.50;;;;;;5030341;28;20040;-77
2023/03/26 06:14:46;;;;;;;;;;;13.30;83.70;;;;;;5030883;28;20444;-75
2023/03/26 06:17:11;;;;;;;1.00;0.30;;;13.60;82.10;;;;;;5029750;28;19942;-76
2023/03/26 06:19:37;;;;;;;1.40;0.32;;;13.90;81.60;;;;;;5029826;28;20120;-76
2023/03/26 06:22:04;;;;;;;1.98;0.50;;;14.20;77.70;;;;;;5029494;28;20096;-77
2023/03/26 06:24:30;;;;;;;1.23;0.30;;;14.40;74.80;;;;;;5029873;28;20402;-78
2023/03/26 06:26:55;;;;;;;1.33;0.45;;;14.80;73.90;;;;;;5028554;28;20489;-77
2023/03/26 06:29:21;;;;;;;2.78;0.60;;;15.10;72.00;;;;;;5028731;28;20032;-77
2023/03/26 06:31:47;;;;;;;2.05;0.40;;;15.60;69.60;;;;;;5030140;28;20033;-77
2023/03/26 06:34:12;;;;;;;0.40;0.30;;;16.10;67.40;;;;;;5029008;28;20430;-77
2023/03/26 06:36:38;;;;;;;1.83;0.40;;;16.40;66.70;;;;;;5028410;28;20025;-76
2023/03/26 06:39:04;;;;;;;1.40;0.40;;;17.00;61.90;;;;;;5029849;28;20507;-76
2023/03/26 06:41:33;;;;;;;2.72;0.70;;;17.00;62.00;;;;;;5029627;28;20044;-78
2023/03/26 06:43:59;;;;;;;1.60;0.30;;;17.40;59.80;;;;;;5029665;28;20026;-77
2023/03/26 06:46:25;;;;;;;1.00;0.30;;;17.80;57.90;;;;;;5029945;28;20013;-77
2023/03/26 06:48:50;;;;;;;0.70;0.30;;;18.10;56.10;;;;;;5029750;28;20497;-75
2023/03/26 06:51:16;;;;;;;1.45;0.30;;;18.50;55.30;;;;;;5029376;28;20029;-78
2023/03/26 06:53:42;;;;;;;1.77;0.40;;;18.80;54.10;;;;;;5028296;28;20029;-78
2023/03/26 06:56:08;;;;;;;1.73;0.30;;;19.10;52.80;;;;;;5029575;28;20034;-76
2023/03/26 06:58:34;;;;;;;1.88;0.40;;;19.40;52.30;;;;;;5029508;28;20048;-77
2023/03/26 07:01:00;;;;;;;1.35;0.55;;;19.60;51.40;;;;;;5029520;28;20025;-77
2023/03/26 07:03:27;;;;;;;1.55;0.40;;;19.80;50.80;;;;;;5029321;28;20418;-78
2023/03/26 07:05:52;;;;;;;0.90;0.32;;;20.10;50.10;;;;;;5029370;28;20079;-77
2023/03/26 07:08:19;;;;;;;1.58;0.38;;;20.50;49.10;;;;;;5029007;28;20441;-78
2023/03/26 07:10:45;;;;;;;1.17;0.30;;;20.70;47.70;;;;;;5029344;28;20112;-76
2023/03/26 07:13:11;;;;;;;1.00;0.30;;;20.70;47.90;;;;;;5029291;28;20061;-76
2023/03/26 07:15:37;;;;;;;2.85;0.45;;;20.80;47.40;;;;;;5044476;28;20071;-78
2023/03/26 07:18:03;;;;;;;2.20;0.57;;;21.10;46.90;;;;;;5029160;28;20045;-76
2023/03/26 07:20:29;;;;;;;3.13;1.75;;;21.40;45.90;;;;;;5028456;28;20479;-77
2023/03/26 07:22:55;;;;;;;2.72;0.90;;;21.70;44.80;;;;;;5029230;28;20026;-76
2023/03/26 07:25:20;;;;;;;2.15;0.43;;;21.80;44.10;;;;;;5028796;28;20056;-78
2023/03/26 07:27:52;;;;;;;0.75;0.38;;;21.60;44.90;;;;;;5027870;28;20506;-77
2023/03/26 07:30:18;;;;;;;2.60;0.60;;;22.10;44.00;;;;;;5029080;28;20048;-77
2023/03/26 07:32:54;;;;;;;1.40;0.50;;;22.20;43.50;;;;;;5028773;28;20510;-78
2023/03/26 07:35:29;;;;;;;;;;;22.40;42.90;;;;;;5029191;28;20080;-78
2023/03/26 07:38:21;;;;;;;1.45;0.65;;;22.50;42.30;;;;;;5028722;28;19963;-77
2023/03/26 07:41:05;;;;;;;2.42;1.10;;;22.40;42.60;;;;;;5028971;28;20025;-77
2023/03/26 07:43:37;;;;;;;2.88;1.23;;;22.40;42.90;;;;;;5027368;28;20029;-78
2023/03/26 07:46:03;;;;;;;2.28;0.65;;;22.50;41.60;;;;;;5027370;28;20099;-76
2023/03/26 07:48:39;;;;;;;5.85;0.80;;;22.70;40.70;;;;;;5028797;28;20030;-76
2023/03/26 07:51:05;;;;;;;;;;;22.80;40.70;;;;;;5029571;28;20026;-76
2023/03/26 07:53:31;;;;;;;1.85;0.47;;;22.80;39.70;;;;;;5028482;28;19951;-77
2023/03/26 07:56:03;;;;;;;1.80;0.50;;;23.00;39.50;;;;;;5027393;28;20037;-76
2023/03/26 07:58:41;;;;;;;1.77;0.50;;;23.10;39.20;;;;;;5028714;28;20048;-77
2023/03/26 08:01:08;;;;;;;3.17;0.80;;;23.10;38.90;;;;;;5028710;28;20025;-77
2023/03/26 08:03:49;;;;;;;1.23;0.55;;;23.00;38.70;;;;;;5027097;28;20057;-76
2023/03/26 08:06:32;;;;;;;1.35;0.57;;;22.80;39.10;;;;;;5028711;28;20026;-77
2023/03/26 08:09:10;;;;;;;4.20;1.00;;;22.80;40.10;;;;;;5027306;28;20032;-77
2023/03/26 08:11:52;;;;;;;1.55;0.57;;;22.90;39.30;;;;;;5027075;28;20029;-76
2023/03/26 08:14:36;;;;;;;1.80;0.40;;;22.80;39.40;;;;;;5027269;28;20111;-77
2023/03/26 08:17:05;;;;;;;1.13;0.40;;;23.10;39.80;;;;;;5028403;28;20513;-77
2023/03/26 08:19:57;;;;;;;3.38;0.63;;;23.50;38.90;;;;;;5028244;28;20033;-78
2023/03/26 08:22:29;;;;;;;0.90;0.50;;;23.60;38.40;;;;;;5019366;28;20104;-77
2023/03/26 08:25:10;;;;;;;1.92;0.50;;;23.40;38.60;;;;;;5028619;28;20113;-78
2023/03/26 08:27:39;;;;;;;1.95;0.50;;;23.70;38.70;;;;;;5028194;28;20025;-77
2023/03/26 08:30:19;;;;;;;2.88;0.50;;;23.80;37.80;;;;;;5028513;28;20034;-76
2023/03/26 08:32:53;;;;;;;1.73;0.40;;;23.80;37.20;;;;;;5030613;28;20045;-78
2023/03/26 08:35:19;;;;;;;1.77;0.40;;;22.50;37.90;;;;;;5032095;28;20564;-77
2023/03/26 08:37:45;;;;;;;2.28;0.43;;;21.80;39.20;;;;;;5030869;28;20527;-77
2023/03/26 08:40:13;;;;;;;1.35;0.40;;;20.80;41.00;;;;;;5032127;28;20028;-78
2023/03/26 08:42:59;;;;;;;2.75;0.38;;;19.70;42.70;;;;;;5032094;28;20041;-77
2023/03/26 08:46:03;;;;;;;1.70;0.40;;;18.80;44.30;;;;;;5031888;28;20039;-77
2023/03/26 08:48:47;;;;;;;2.90;0.68;;;18.10;46.10;;;;;;5031726;28;20041;-77
2023/03/26 08:51:43;;;;;;;2.90;0.30;;;17.80;46.40;;;;;;5031775;28;20021;-77
2023/03/26 08:54:36;;;;;;;2.42;0.50;;;17.50;47.30;;;;;;5031941;28;20052;-76
2023/03/26 08:57:11;;;;;;;2.65;0.88;;;17.50;46.50;;;;;;5030586;28;20048;-77
2023/03/26 09:00:12;;;;;;;2.53;0.32;;;17.10;47.20;;;;;;5031890;28;20083;-76
2023/03/26 09:03:15;;;;;;;3.25;0.40;;;16.90;47.90;;;;;;5029277;28;20041;-77
2023/03/26 09:06:01;;;;;;;2.47;0.50;;;16.80;49.60;;;;;;5030345;28;20038;-77
2023/03/26 09:08:51;;;;;;;2.25;0.82;;;17.00;50.00;;;;;;5046756;28;20171;-76
2023/03/26 09:11:35;;;;;;;3.08;0.60;;;17.20;48.50;;;;;;5031237;28;20130;-78
2023/03/26 09:14:34;;;;;;;1.13;0.30;;;17.20;47.40;;;;;;5031870;28;20029;-76
2023/03/26 09:17:24;;;;;;;2.85;0.63;;;17.10;48.10;;;;;;5031873;28;20529;-77
2023/03/26 09:20:19;;;;;;;1.65;0.47;;;16.90;48.50;;;;;;5046702;28;20033;-76
2023/03/26 09:23:00;;;;;;;4.40;0.80;;;16.60;49.60;;;;;;5030596;28;20076;-77
2023/03/26 09:26:03;;;;;;;2.75;0.40;;;16.40;50.20;;;;;;5031246;28;20548;-76
2023/03/26 09:28:35;;;;;;;2.08;0.52;;;16.10;50.80;;;;;;5031232;28;20569;-76
2023/03/26 09:31:21;;;;;;;12.93;6.15;;;15.80;51.20;;;;;;5031304;28;20025;-75
2023/03/26 09:33:58;;;;;;;6.97;2.90;;;15.40;51.80;;;;;;5029664;28;20099;-76
2023/03/26 09:36:24;;;;;;;5.20;2.67;;;15.30;52.90;;;;;;5029797;28;20159;-77
2023/03/26 09:38:53;;;;;;;;;;;15.10;53.60;;;;;;5031299;28;20517;-77
2023/03/26 09:41:39;;;;;;;5.18;1.75;;;15.00;53.80;;;;;;5029496;28;19909;-77
2023/03/26 09:44:26;;;;;;;4.43;1.38;;;14.70;54.40;;;;;;5030382;28;20045;-76
2023/03/26 09:47:03;;;;;;;2.58;1.00;;;14.60;54.80;;;;;;5029614;28;20120;-77
2023/03/26 09:49:59;;;;;;;6.88;1.30;;;14.50;55.20;;;;;;5030844;28;20061;-77
2023/03/26 09:53:06;;;;;;;5.55;2.15;;;14.50;55.90;;;;;;5030761;28;20505;-76
2023/03/26 09:55:44;;;;;;;2.47;0.82;;;14.50;56.00;;;;;;5030616;28;20490;-77
2023/03/26 09:58:44;;;;;;;17.17;8.90;;;14.60;56.30;;;;;;5030536;28;20084;-77
2023/03/26 10:01:17;;;;;;;5.50;1.65;;;15.00;56.10;;;;;;5030699;28;20057;-76
2023/03/26 10:04:32;;;;;;;4.53;1.67;;;15.70;55.30;;;;;;5029382;28;20029;-77
2023/03/26 10:07:05;;;;;;;3.28;0.80;;;16.50;53.10;;;;;;5030595;28;20033;-76
2023/03/26 10:09:59;;;;;;;0.70;0.30;;;16.90;52.40;;;;;;5028766;28;20037;-76
2023/03/26 10:13:06;;;;;;;8.88;0.70;;;17.10;51.50;;;;;;5030300;28;20052;-77
2023/03/26 10:15:47;;;;;;;2.20;0.60;;;17.40;51.40;;;;;;5010831;28;20037;-77
2023/03/26 10:18:19;;;;;;;3.45;1.33;;;18.10;51.10;;;;;;5029949;28;20057;-77
2023/03/26 10:20:57;;;;;;;4.28;1.00;;;18.70;48.50;;;;;;5030246;28;20512;-75
2023/03/26 10:23:34;;;;;;;1.70;0.40;;;19.10;47.70;;;;;;5030023;28;20084;-77
2023/03/26 10:26:43;;;;;;;2.08;0.47;;;19.20;47.40;;;;;;5030206;28;20025;-76
2023/03/26 10:29:32;;;;;;;2.28;0.40;;;19.30;47.10;;;;;;5027411;28;20105;-77
2023/03/26 10:32:07;;;;;;;4.57;0.75;;;19.80;45.20;;;;;;5027510;28;20075;-77
2023/03/26 10:34:41;;;;;;;2.55;0.52;;;19.50;45.30;;;;;;5021880;28;20060;-77
2023/03/26 10:37:29;;;;;;;1.63;0.30;;;19.00;45.10;;;;;;5029906;28;20490;-76
2023/03/26 10:40:22;;;;;;;4.20;1.05;;;18.30;46.00;;;;;;5029720;28;20107;-76
2023/03/26 10:43:33;;;;;;;1.85;0.60;;;17.50;47.90;;;;;;5029628;28;20044;-75
2023/03/26 10:46:21;;;;;;;2.00;0.73;;;16.90;49.90;;;;;;5028452;28;20060;-76
2023/03/26 10:49:14;;;;;;;4.50;1.77;;;16.70;50.20;;;;;;5029518;28;20048;-76
2023/03/26 10:51:55;;;;;;;4.45;2.30;;;16.60;50.80;;;;;;5029637;28;20036;-75
2023/03/26 10:54:25;;;;;;;2.92;0.60;;;16.40;50.80;;;;;;5029595;28;20113;-76
2023/03/26 10:56:51;;;;;;;2.67;0.50;;;16.30;51.10;;;;;;5029457;28;20014;-77
2023/03/26 10:59:17;;;;;;;1.73;0.40;;;16.00;51.50;;;;;;5029401;28;20442;-78
2023/03/26 11:02:19;;;;;;;3.25;0.40;;;15.90;51.80;;;;;;5028333;28;20025;-76
2023/03/26 11:05:08;;;;;;;1.90;0.50;;;15.80;52.00;;;;;;5029584;28;20079;-76
2023/03/26 11:07:57;;;;;;;3.20;0.50;;;15.90;52.40;;;;;;5026323;28;20838;-77
2023/03/26 11:10:50;;;;;;;5.88;1.00;;;16.00;52.30;;;;;;5029288;28;20132;-77
2023/03/26 11:13:37;;;;;;;4.18;1.02;;;16.20;52.50;;;;;;5029097;28;20021;-77
2023/03/26 11:16:18;;;;;;;2.85;0.73;;;16.20;51.40;;;;;;5029220;28;20033;-76
2023/03/26 11:18:52;;;;;;;2.63;0.50;;;16.40;52.20;;;;;;5027668;28;20111;-77
2023/03/26 11:21:44;;;;;;;1.63;0.40;;;16.50;49.60;;;;;;5028934;28;20509;-78
2023/03/26 11:24:37;;;;;;;4.20;0.65;;;16.50;49.40;;;;;;5027161;28;20069;-77
2023/03/26 11:27:05;;;;;;;1.73;0.50;;;16.60;47.80;;;;;;5029071;28;20072;-76
2023/03/26 11:29:31;;;;;;;4.10;1.00;;;16.70;47.90;;;;;;5028773;28;20104;-78
2023/03/26 11:32:25;;;;;;;2.13;0.40;;;16.70;48.70;;;;;;5028825;28;20567;-77
2023/03/26 11:35:07;;;;;;;2.40;0.40;;;17.10;48.30;;;;;;5028529;28;20072;-76
2023/03/26 11:38:10;;;;;;;2.17;0.65;;;17.20;46.00;;;;;;5028610;28;20768;-77
2023/03/26 11:40:42;;;;;;;1.75;0.40;;;16.80;46.40;;;;;;5027904;28;20029;-76
2023/03/26 11:43:10;;;;;;;2.10;0.40;;;16.60;47.40;;;;;;5027368;28;20683;-76
2023/03/26 11:45:45;;;;;;;1.63;0.50;;;16.50;48.00;;;;;;5027973;28;20079;-78
2023/03/26 11:48:39;;;;;;;4.03;0.52;;;16.40;47.80;;;;;;5028436;28;20034;-77
2023/03/26 11:51:09;;;;;;;1.48;0.47;;;16.40;48.80;;;;;;5028113;28;20808;-76
2023/03/26 11:53:37;;;;;;;2.67;0.32;;;16.40;49.20;;;;;;5028550;28;20022;-77
2023/03/26 11:56:22;;;;;;;2.25;0.40;;;16.70;48.90;;;;;;5028601;28;20038;-76
2023/03/26 11:59:24;;;;;;;1.35;0.52;;;17.10;49.50;;;;;;5029324;28;20320;-77
2023/03/26 12:01:56;;;;;;;2.65;0.55;;;17.20;48.40;;;;;;5026186;28;20128;-76
2023/03/26 12:04:49;;;;;;;1.95;0.40;;;17.40;47.80;;;;;;5028675;28;20033;-77
2023/03/26 12:07:21;;;;;;;1.23;0.35;;;17.50;48.40;;;;;;5030040;28;20112;-77
2023/03/26 12:09:51;;;;;;;1.50;0.30;;;17.80;45.90;;;;;;5032712;28;20071;-76
2023/03/26 12:12:17;;;;;;;2.97;0.40;;;17.80;45.20;;;;;;5032511;28;20029;-76
2023/03/26 12:14:43;;;;;;;6.25;0.40;;;17.70;43.10;;;;;;5031326;28;20022;-76
2023/03/26 12:17:24;;;;;;;4.75;0.57;;;17.60;42.80;;;;;;5032379;28;20033;-77
2023/03/26 12:19:50;;;;;;;1.33;0.40;;;17.50;43.90;;;;;;5032525;28;20108;-77
2023/03/26 12:22:36;;;;;;;1.00;0.30;;;17.40;42.60;;;;;;5032428;28;20079;-77
2023/03/26 12:25:05;;;;;;;7.93;0.50;;;17.40;42.90;;;;;;5032740;28;20544;-77
2023/03/26 12:27:31;;;;;;;2.42;0.47;;;17.50;43.40;;;;;;5030931;28;20025;-77
2023/03/26 12:30:10;;;;;;;3.38;0.85;;;17.60;43.70;;;;;;5032465;28;20405;-76
2023/03/26 12:32:43;;;;;;;5.25;0.40;;;17.60;45.40;;;;;;5031030;28;20056;-76
2023/03/26 12:35:25;;;;;;;2.78;0.40;;;17.70;44.10;;;;;;5032305;28;20486;-76
2023/03/26 12:37:53;;;;;;;2.55;0.50;;;17.70;45.70;;;;;;5030813;28;20045;-75
2023/03/26 12:40:28;;;;;;;4.00;0.40;;;17.60;45.90;;;;;;5030685;28;20144;-77
2023/03/26 12:42:57;;;;;;;1.45;0.40;;;17.50;45.40;;;;;;5030885;28;20036;-76
2023/03/26 12:45:29;;;;;;;2.70;0.50;;;17.30;45.40;;;;;;5032094;28;20108;-78
2023/03/26 12:47:57;;;;;;;3.83;0.40;;;17.00;46.90;;;;;;5031969;28;20033;-76
2023/03/26 12:50:30;;;;;;;3.03;0.43;;;16.90;47.80;;;;;;5030614;28;20389;-75
2023/03/26 12:53:21;;;;;;;1.90;0.47;;;16.80;47.80;;;;;;5032042;28;20030;-76
2023/03/26 12:56:08;;;;;;;2.20;0.40;;;16.80;47.90;;;;;;5031836;28;20100;-77
2023/03/26 12:58:46;;;;;;;2.67;0.55;;;16.60;48.70;;;;;;5027117;28;20695;-78
2023/03/26 13:01:39;;;;;;;1.42;0.35;;;16.60;48.90;;;;;;5029290;28;20039;-77
2023/03/26 13:04:37;;;;;;;2.60;0.82;;;16.50;49.70;;;;;;5029615;28;20029;-76
2023/03/26 13:07:22;;;;;;;5.47;0.50;;;16.50;49.70;;;;;;5027848;28;20064;-78
2023/03/26 13:10:07;;;;;;;3.20;0.40;;;16.50;50.20;;;;;;5027847;28;20406;-76
2023/03/26 13:12:50;;;;;;;2.28;0.50;;;16.50;50.30;;;;;;5029645;28;20018;-77
2023/03/26 13:15:25;;;;;;;3.25;0.70;;;16.60;50.40;;;;;;5029514;28;20030;-77
2023/03/26 13:18:14;;;;;;;2.17;0.50;;;16.60;50.30;;;;;;5028669;28;20498;-77
2023/03/26 13:20:52;;;;;;;4.68;0.60;;;16.50;50.50;;;;;;5028791;28;20611;-78
2023/03/26 13:23:53;;;;;;;3.17;0.98;;;16.50;50.70;;;;;;5029043;28;20509;-78
2023/03/26 13:26:52;;;;;;;5.00;0.57;;;16.60;51.10;;;;;;5029195;28;20124;-78
2023/03/26 13:29:22;;;;;;;1.48;0.47;;;16.50;50.90;;;;;;5029054;28;20091;-78
2023/03/26 13:32:12;;;;;;;10.50;0.50;;;16.50;50.10;;;;;;5028948;28;20082;-78
2023/03/26 13:34:52;;;;;;;2.15;0.47;;;16.50;51.10;;;;;;5028869;28;20033;-77
2023/03/26 13:37:40;;;;;;;3.35;0.75;;;16.50;51.40;;;;;;5028597;28;20095;-78